首页
METAR-TAF:

METAR-TAF

机场 :

比靈斯, 蒙大拿州, 美国

纬度: 45-48-25N, 经度: 108-32-32W, 海拔: 1112米

当前天气观测

该预报发布于44分钟前的05:53 UTC
风速7节,风向
温度 14°C
湿度 77%
气压 1013 hPa
能見度: 16.1公里
少量云层高于6000英尺
散云层高于20000英尺

METAR: KBIL 250553Z 17007KT 10SM FEW060 SCT200 14/10 A2992 RMK AO2 SLP112 60009 T01390100 10228 20133 51009 $

时间: 00:37 (06:37 UTC)

预报

该预报发布于1小时和17分钟前的05:20 UTC
预报有效从25日的 06点(UTC)到 26日的 06点(UTC)
风速6节,风向多变
能見度: 10公里
散云层高于7000英尺
从 25日的 1800点(UTC)
风速6节,风向多变
能見度: 10公里
散云层高于7000英尺, 积雨云.
多云层高于10000英尺
附近有雷暴
从 26日的 0000点(UTC)
风速10节,风向北转西北,有时为17节阵风
能見度: 10公里
散云层高于6000英尺, 积雨云.
多云层高于10000英尺
附近有雷暴
从 26日的 0300点(UTC)
风速6节,风向多变
能見度: 10公里
散云层高于11000英尺

TAF: KBIL 250520Z 2506/2606 VRB06KT P6SM SCT070 FM251800 VRB06KT P6SM VCTS SCT070CB BKN100 FM260000 33010G17KT P6SM VCTS SCT060CB BKN100 FM260300 VRB06KT P6SM SCT110

超过4000个机场的气象观测和天气预报(METAR&TAF报告)。

可查询的气象台以黄色和红色小点在地图上表示。

将鼠标移到小点上方,可查看气象台名称。

然后点击查看天气观测和预报。

如需切换地图:点击带黑十字的绿色按钮放大地图;点击带横线的绿色按钮缩小地图;或者点击绿色箭头查看邻近地区的地图。


METAR-TAF: